FLI346 EIDW-EKVG
Flight info
| Callsign | FLI346 |
|---|---|
| Flight time | 1h 27m |
| Altitude | 38000 |
| Route | ROTEV3J ROTEV DCT GOTNA DCT NALAN DCT ROBUR |
| Aircraft | A20N/M-SDE2E3FGHIRWXY/LB1 |
Departure
| Time | 2026-05-05 16:49 |
|---|---|
| Airport | Dublin Airport (EIDW) |
Arrival
| Time | 2026-05-05 18:17 |
|---|---|
| Airport | Vágar Airport (EKVG) |
| Time | Latitude | Longitude | Altitude | Speed | Heading |
|---|---|---|---|---|---|
| 2026-05-05 16:41 | 53.42481 | -6.26319 | 249 ft | 2 kts | 186° |
| 2026-05-05 16:42 | 53.42496 | -6.26316 | 249 ft | 2 kts | 186° |
| 2026-05-05 16:42 | 53.42506 | -6.26314 | 249 ft | 2 kts | 186° |
| 2026-05-05 16:42 | 53.42518 | -6.26322 | 249 ft | 2 kts | 126° |
| 2026-05-05 16:42 | 53.42522 | -6.26335 | 249 ft | 1 kts | 94° |
| 2026-05-05 16:43 | 53.42522 | -6.26346 | 249 ft | 0 kts | 95° |
| 2026-05-05 16:44 | 53.42519 | -6.26293 | 249 ft | 8 kts | 95° |
| 2026-05-05 16:44 | 53.42512 | -6.26149 | 249 ft | 15 kts | 95° |
| 2026-05-05 16:44 | 53.42500 | -6.25932 | 249 ft | 16 kts | 99° |
| 2026-05-05 16:45 | 53.42501 | -6.25750 | 249 ft | 19 kts | 44° |
| 2026-05-05 16:45 | 53.42617 | -6.25574 | 249 ft | 25 kts | 42° |
| 2026-05-05 16:45 | 53.42734 | -6.25356 | 249 ft | 20 kts | 47° |
| 2026-05-05 16:45 | 53.42852 | -6.25286 | 249 ft | 19 kts | 340° |
| 2026-05-05 16:46 | 53.42978 | -6.25370 | 249 ft | 19 kts | 339° |
| 2026-05-05 16:46 | 53.43102 | -6.25460 | 249 ft | 19 kts | 336° |
| 2026-05-05 16:46 | 53.43194 | -6.25528 | 249 ft | 10 kts | 336° |
| 2026-05-05 16:46 | 53.43266 | -6.25580 | 249 ft | 11 kts | 337° |
| 2026-05-05 16:47 | 53.43346 | -6.25636 | 250 ft | 12 kts | 338° |
| 2026-05-05 16:47 | 53.43406 | -6.25542 | 250 ft | 18 kts | 94° |
| 2026-05-05 16:47 | 53.43395 | -6.25318 | 250 ft | 20 kts | 95° |
| 2026-05-05 16:47 | 53.43382 | -6.25045 | 250 ft | 24 kts | 94° |
| 2026-05-05 16:48 | 53.43366 | -6.24749 | 250 ft | 25 kts | 96° |
| 2026-05-05 16:48 | 53.43428 | -6.24549 | 250 ft | 17 kts | 6° |
| 2026-05-05 16:48 | 53.43530 | -6.24603 | 250 ft | 16 kts | 277° |
| 2026-05-05 16:48 | 53.43549 | -6.24983 | 250 ft | 66 kts | 276° |
| 2026-05-05 16:49 | 53.43613 | -6.26164 | 250 ft | 134 kts | 276° |
| 2026-05-05 16:49 | 53.43701 | -6.27979 | 463 ft | 168 kts | 276° |
| 2026-05-05 16:49 | 53.43871 | -6.29906 | 1129 ft | 170 kts | 294° |
| 2026-05-05 16:49 | 53.44526 | -6.31443 | 1927 ft | 164 kts | 319° |
| 2026-05-05 16:50 | 53.45335 | -6.32869 | 2550 ft | 177 kts | 313° |
| 2026-05-05 16:50 | 53.46188 | -6.34482 | 2981 ft | 195 kts | 323° |
| 2026-05-05 16:50 | 53.47460 | -6.35338 | 3495 ft | 208 kts | 359° |
| 2026-05-05 16:50 | 53.48911 | -6.35174 | 4280 ft | 213 kts | 4° |
| 2026-05-05 16:51 | 53.50391 | -6.35025 | 5130 ft | 216 kts | 2° |
| 2026-05-05 16:51 | 53.51880 | -6.34920 | 5973 ft | 218 kts | 2° |
| 2026-05-05 16:51 | 53.53388 | -6.34685 | 6783 ft | 223 kts | 6° |
| 2026-05-05 16:51 | 53.54963 | -6.34301 | 7340 ft | 240 kts | 7° |
| 2026-05-05 16:52 | 53.56670 | -6.33866 | 7867 ft | 258 kts | 7° |
| 2026-05-05 16:52 | 53.58478 | -6.33401 | 8499 ft | 269 kts | 7° |
| 2026-05-05 16:52 | 53.60324 | -6.32926 | 8914 ft | 272 kts | 8° |
| 2026-05-05 16:52 | 53.62203 | -6.32441 | 9042 ft | 272 kts | 7° |
| 2026-05-05 16:53 | 53.64060 | -6.31963 | 9045 ft | 272 kts | 7° |
| 2026-05-05 16:53 | 53.65944 | -6.31462 | 9043 ft | 272 kts | 9° |
| 2026-05-05 16:53 | 53.67791 | -6.30765 | 9081 ft | 277 kts | 13° |
| 2026-05-05 16:53 | 53.69669 | -6.29928 | 9701 ft | 284 kts | 13° |
| 2026-05-05 16:54 | 53.71563 | -6.29069 | 10679 ft | 284 kts | 13° |
| 2026-05-05 16:54 | 53.73507 | -6.28187 | 11247 ft | 298 kts | 13° |
| 2026-05-05 16:54 | 53.75514 | -6.27138 | 11910 ft | 309 kts | 18° |
| 2026-05-05 16:54 | 53.77506 | -6.25805 | 12730 ft | 313 kts | 21° |
| 2026-05-05 16:55 | 53.79491 | -6.24333 | 13530 ft | 318 kts | 21° |
| 2026-05-05 16:55 | 53.81529 | -6.22795 | 14319 ft | 322 kts | 21° |
| 2026-05-05 16:55 | 53.83582 | -6.21241 | 15082 ft | 327 kts | 21° |
| 2026-05-05 16:55 | 53.85664 | -6.19667 | 15823 ft | 331 kts | 21° |
| 2026-05-05 16:56 | 53.87767 | -6.18078 | 16543 ft | 336 kts | 21° |
| 2026-05-05 16:56 | 53.89904 | -6.16463 | 17252 ft | 340 kts | 21° |
| 2026-05-05 16:56 | 53.92068 | -6.14826 | 17938 ft | 345 kts | 21° |
| 2026-05-05 16:56 | 53.94245 | -6.13178 | 18608 ft | 349 kts | 21° |
| 2026-05-05 16:57 | 53.96458 | -6.11500 | 19280 ft | 353 kts | 21° |
| 2026-05-05 16:57 | 53.98715 | -6.09784 | 19958 ft | 356 kts | 21° |
| 2026-05-05 16:57 | 54.00956 | -6.08081 | 20611 ft | 359 kts | 21° |
| 2026-05-05 16:57 | 54.03231 | -6.06346 | 21244 ft | 363 kts | 21° |
| 2026-05-05 16:58 | 54.05545 | -6.04494 | 21864 ft | 367 kts | 22° |
| 2026-05-05 16:58 | 54.07839 | -6.02614 | 22462 ft | 370 kts | 22° |
| 2026-05-05 16:58 | 54.10147 | -6.00716 | 23048 ft | 374 kts | 22° |
| 2026-05-05 16:58 | 54.12519 | -5.98765 | 23631 ft | 377 kts | 22° |
| 2026-05-05 16:59 | 54.14868 | -5.96835 | 24191 ft | 380 kts | 22° |
| 2026-05-05 16:59 | 54.17241 | -5.94883 | 24741 ft | 384 kts | 22° |
| 2026-05-05 16:59 | 54.19660 | -5.92894 | 25284 ft | 387 kts | 22° |
| 2026-05-05 16:59 | 54.22080 | -5.90903 | 25807 ft | 390 kts | 22° |
| 2026-05-05 17:00 | 54.24510 | -5.88901 | 26299 ft | 393 kts | 23° |
| 2026-05-05 17:00 | 54.26995 | -5.86852 | 26781 ft | 397 kts | 23° |
| 2026-05-05 17:00 | 54.29485 | -5.84795 | 27243 ft | 401 kts | 23° |
| 2026-05-05 17:00 | 54.32046 | -5.82677 | 27705 ft | 404 kts | 23° |
| 2026-05-05 17:01 | 54.34583 | -5.80576 | 28155 ft | 407 kts | 23° |
| 2026-05-05 17:01 | 54.37122 | -5.78470 | 28592 ft | 410 kts | 23° |
| 2026-05-05 17:01 | 54.39712 | -5.76319 | 29027 ft | 413 kts | 23° |
| 2026-05-05 17:01 | 54.42292 | -5.74174 | 29450 ft | 416 kts | 23° |
| 2026-05-05 17:02 | 54.44866 | -5.72031 | 29866 ft | 418 kts | 23° |
| 2026-05-05 17:02 | 54.47494 | -5.69839 | 30273 ft | 421 kts | 23° |
| 2026-05-05 17:02 | 54.50131 | -5.67636 | 30666 ft | 424 kts | 23° |
| 2026-05-05 17:02 | 54.52782 | -5.65457 | 31028 ft | 425 kts | 21° |
| 2026-05-05 17:03 | 54.55508 | -5.63582 | 31377 ft | 426 kts | 16° |
| 2026-05-05 17:03 | 54.58368 | -5.62078 | 31703 ft | 428 kts | 11° |
| 2026-05-05 17:03 | 54.61271 | -5.61008 | 32046 ft | 428 kts | 6° |
| 2026-05-05 17:03 | 54.64192 | -5.60370 | 32470 ft | 425 kts | 1° |
| 2026-05-05 17:04 | 54.67127 | -5.60156 | 32904 ft | 422 kts | 357° |
| 2026-05-05 17:04 | 54.70051 | -5.60248 | 33313 ft | 421 kts | 355° |
| 2026-05-05 17:04 | 54.72953 | -5.60407 | 33693 ft | 420 kts | 355° |
| 2026-05-05 17:04 | 54.75897 | -5.60581 | 34056 ft | 420 kts | 355° |
| 2026-05-05 17:05 | 54.78808 | -5.60751 | 34400 ft | 419 kts | 355° |
| 2026-05-05 17:05 | 54.81717 | -5.60916 | 34739 ft | 419 kts | 355° |
| 2026-05-05 17:05 | 54.84625 | -5.61077 | 35003 ft | 419 kts | 355° |
| 2026-05-05 17:05 | 54.87520 | -5.61236 | 35238 ft | 419 kts | 355° |
| 2026-05-05 17:06 | 54.90407 | -5.61393 | 35467 ft | 419 kts | 355° |
| 2026-05-05 17:06 | 54.93338 | -5.61552 | 35661 ft | 419 kts | 355° |
| 2026-05-05 17:06 | 54.96207 | -5.61707 | 35847 ft | 418 kts | 355° |
| 2026-05-05 17:06 | 54.99125 | -5.61864 | 36036 ft | 418 kts | 355° |
| 2026-05-05 17:07 | 55.02023 | -5.62020 | 36207 ft | 418 kts | 355° |
| 2026-05-05 17:07 | 55.04919 | -5.62175 | 36396 ft | 419 kts | 355° |
| 2026-05-05 17:07 | 55.07855 | -5.62333 | 36594 ft | 420 kts | 355° |
| 2026-05-05 17:07 | 55.10760 | -5.62491 | 36792 ft | 421 kts | 355° |
| 2026-05-05 17:08 | 55.13674 | -5.62648 | 36972 ft | 422 kts | 355° |
| 2026-05-05 17:08 | 55.16616 | -5.62808 | 37140 ft | 424 kts | 355° |
| 2026-05-05 17:08 | 55.19578 | -5.62968 | 37303 ft | 425 kts | 355° |
| 2026-05-05 17:08 | 55.22494 | -5.63126 | 37465 ft | 427 kts | 355° |
| 2026-05-05 17:09 | 55.25485 | -5.63290 | 37631 ft | 428 kts | 355° |
| 2026-05-05 17:09 | 55.28420 | -5.63450 | 37795 ft | 429 kts | 355° |
| 2026-05-05 17:09 | 55.31415 | -5.63614 | 37956 ft | 429 kts | 355° |
| 2026-05-05 17:09 | 55.34390 | -5.63776 | 38053 ft | 431 kts | 355° |
| 2026-05-05 17:10 | 55.40390 | -5.64105 | 38064 ft | 431 kts | 355° |
| 2026-05-05 17:10 | 55.46350 | -5.64431 | 38067 ft | 430 kts | 354° |
| 2026-05-05 17:11 | 55.52318 | -5.64759 | 38067 ft | 430 kts | 354° |
| 2026-05-05 17:11 | 55.58314 | -5.65090 | 38067 ft | 430 kts | 354° |
| 2026-05-05 17:12 | 55.64258 | -5.65419 | 38066 ft | 431 kts | 354° |
| 2026-05-05 17:12 | 55.70246 | -5.65752 | 38066 ft | 431 kts | 354° |
| 2026-05-05 17:13 | 55.76225 | -5.66085 | 38065 ft | 431 kts | 354° |
| 2026-05-05 17:13 | 55.82171 | -5.66418 | 38064 ft | 431 kts | 354° |
| 2026-05-05 17:14 | 55.88145 | -5.66754 | 38065 ft | 431 kts | 354° |
| 2026-05-05 17:14 | 55.94143 | -5.67092 | 38068 ft | 431 kts | 354° |
| 2026-05-05 17:15 | 56.00094 | -5.67428 | 38070 ft | 432 kts | 354° |
| 2026-05-05 17:15 | 56.06076 | -5.67765 | 38064 ft | 432 kts | 354° |
| 2026-05-05 17:16 | 56.12092 | -5.68106 | 38063 ft | 432 kts | 354° |
| 2026-05-05 17:16 | 56.18084 | -5.68448 | 38062 ft | 432 kts | 354° |
| 2026-05-05 17:17 | 56.24046 | -5.68789 | 38064 ft | 431 kts | 354° |
| 2026-05-05 17:17 | 56.30029 | -5.69132 | 38068 ft | 431 kts | 354° |
| 2026-05-05 17:18 | 56.35989 | -5.69477 | 38069 ft | 431 kts | 354° |
| 2026-05-05 17:18 | 56.41972 | -5.69822 | 38068 ft | 431 kts | 354° |
| 2026-05-05 17:19 | 56.47977 | -5.70169 | 38065 ft | 432 kts | 354° |
| 2026-05-05 17:19 | 56.53956 | -5.70516 | 38072 ft | 432 kts | 354° |
| 2026-05-05 17:20 | 56.59920 | -5.70862 | 38078 ft | 432 kts | 354° |
| 2026-05-05 17:20 | 56.65897 | -5.71211 | 38068 ft | 432 kts | 354° |
| 2026-05-05 17:21 | 56.71875 | -5.71562 | 38074 ft | 431 kts | 354° |
| 2026-05-05 17:22 | 56.80815 | -5.72089 | 38069 ft | 431 kts | 354° |
| 2026-05-05 17:22 | 56.86805 | -5.72443 | 38061 ft | 431 kts | 354° |
| 2026-05-05 17:23 | 56.92783 | -5.72798 | 38064 ft | 431 kts | 354° |
| 2026-05-05 17:23 | 56.98780 | -5.73155 | 38068 ft | 432 kts | 354° |
| 2026-05-05 17:24 | 57.04736 | -5.73509 | 38062 ft | 432 kts | 354° |
| 2026-05-05 17:24 | 57.10728 | -5.73866 | 38050 ft | 431 kts | 354° |
| 2026-05-05 17:25 | 57.16677 | -5.74223 | 38059 ft | 430 kts | 353° |
| 2026-05-05 17:25 | 57.22636 | -5.74580 | 38067 ft | 430 kts | 353° |
| 2026-05-05 17:26 | 57.28580 | -5.74943 | 38059 ft | 430 kts | 353° |
| 2026-05-05 17:26 | 57.34584 | -5.75308 | 38067 ft | 431 kts | 353° |
| 2026-05-05 17:27 | 57.40523 | -5.75669 | 38064 ft | 431 kts | 353° |
| 2026-05-05 17:27 | 57.46534 | -5.76035 | 38060 ft | 431 kts | 353° |
| 2026-05-05 17:28 | 57.52498 | -5.76400 | 38117 ft | 431 kts | 353° |
| 2026-05-05 17:28 | 57.58437 | -5.76764 | 38089 ft | 430 kts | 353° |
| 2026-05-05 17:29 | 57.64422 | -5.77130 | 38083 ft | 430 kts | 353° |
| 2026-05-05 17:29 | 57.70351 | -5.77499 | 38102 ft | 429 kts | 353° |
| 2026-05-05 17:30 | 57.76313 | -5.77869 | 38094 ft | 429 kts | 353° |
| 2026-05-05 17:30 | 57.82268 | -5.78240 | 38103 ft | 430 kts | 353° |
| 2026-05-05 17:31 | 57.88228 | -5.78614 | 38119 ft | 430 kts | 353° |
| 2026-05-05 17:31 | 57.94149 | -5.78985 | 38126 ft | 430 kts | 353° |
| 2026-05-05 17:32 | 58.00127 | -5.79361 | 38127 ft | 429 kts | 353° |
| 2026-05-05 17:32 | 58.06063 | -5.79735 | 38128 ft | 429 kts | 353° |
| 2026-05-05 17:33 | 58.11983 | -5.80109 | 38154 ft | 429 kts | 353° |
| 2026-05-05 17:33 | 58.17929 | -5.80485 | 38132 ft | 429 kts | 353° |
| 2026-05-05 17:34 | 58.23888 | -5.80866 | 38135 ft | 430 kts | 353° |
| 2026-05-05 17:34 | 58.29842 | -5.81247 | 38144 ft | 430 kts | 353° |
| 2026-05-05 17:35 | 58.35765 | -5.81628 | 38138 ft | 429 kts | 353° |
| 2026-05-05 17:35 | 58.41694 | -5.82010 | 38138 ft | 429 kts | 353° |
| 2026-05-05 17:36 | 58.47649 | -5.82395 | 38141 ft | 429 kts | 353° |
| 2026-05-05 17:36 | 58.53571 | -5.82778 | 38137 ft | 429 kts | 353° |
| 2026-05-05 17:37 | 58.59536 | -5.83165 | 38138 ft | 428 kts | 353° |
| 2026-05-05 17:37 | 58.65438 | -5.83551 | 38126 ft | 429 kts | 353° |
| 2026-05-05 17:38 | 58.71409 | -5.83940 | 38134 ft | 429 kts | 353° |
| 2026-05-05 17:38 | 58.77328 | -5.84329 | 38137 ft | 429 kts | 353° |
| 2026-05-05 17:39 | 58.83270 | -5.84720 | 38139 ft | 428 kts | 353° |
| 2026-05-05 17:39 | 58.89174 | -5.85111 | 38126 ft | 428 kts | 353° |
| 2026-05-05 17:40 | 58.95087 | -5.85505 | 38137 ft | 428 kts | 353° |
| 2026-05-05 17:40 | 59.01006 | -5.85901 | 38126 ft | 428 kts | 353° |
| 2026-05-05 17:41 | 59.06936 | -5.86296 | 38119 ft | 428 kts | 353° |
| 2026-05-05 17:41 | 59.12873 | -5.86692 | 38119 ft | 427 kts | 353° |
| 2026-05-05 17:42 | 59.18806 | -5.87090 | 38113 ft | 427 kts | 353° |
| 2026-05-05 17:42 | 59.24713 | -5.87488 | 38102 ft | 427 kts | 353° |
| 2026-05-05 17:43 | 59.30632 | -5.87888 | 38133 ft | 427 kts | 353° |
| 2026-05-05 17:43 | 59.36536 | -5.88291 | 38116 ft | 428 kts | 353° |
| 2026-05-05 17:44 | 59.42453 | -5.88696 | 38112 ft | 428 kts | 353° |
| 2026-05-05 17:44 | 59.48349 | -5.89100 | 38115 ft | 427 kts | 353° |
| 2026-05-05 17:45 | 59.54259 | -5.89504 | 38107 ft | 427 kts | 353° |
| 2026-05-05 17:45 | 59.60166 | -5.89912 | 38124 ft | 426 kts | 353° |
| 2026-05-05 17:46 | 59.66059 | -5.90322 | 38127 ft | 426 kts | 353° |
| 2026-05-05 17:46 | 59.71962 | -5.90732 | 38102 ft | 425 kts | 353° |
| 2026-05-05 17:47 | 59.77856 | -5.91141 | 38130 ft | 426 kts | 353° |
| 2026-05-05 17:47 | 59.83756 | -5.91552 | 38110 ft | 426 kts | 353° |
| 2026-05-05 17:48 | 59.89645 | -5.91965 | 38123 ft | 426 kts | 353° |
| 2026-05-05 17:48 | 59.95555 | -5.92382 | 38117 ft | 425 kts | 353° |
| 2026-05-05 17:49 | 60.01444 | -5.92799 | 38119 ft | 425 kts | 353° |
| 2026-05-05 17:49 | 60.07309 | -5.93216 | 37986 ft | 425 kts | 353° |
| 2026-05-05 17:49 | 60.10232 | -5.93421 | 37790 ft | 423 kts | 353° |
| 2026-05-05 17:50 | 60.13149 | -5.93624 | 37604 ft | 420 kts | 353° |
| 2026-05-05 17:50 | 60.16052 | -5.93829 | 37404 ft | 418 kts | 352° |
| 2026-05-05 17:50 | 60.18935 | -5.94034 | 37215 ft | 415 kts | 352° |
| 2026-05-05 17:50 | 60.21790 | -5.94238 | 37016 ft | 413 kts | 352° |
| 2026-05-05 17:51 | 60.24675 | -5.94445 | 36792 ft | 412 kts | 352° |
| 2026-05-05 17:51 | 60.27500 | -5.94648 | 36491 ft | 412 kts | 352° |
| 2026-05-05 17:51 | 60.30336 | -5.94853 | 36031 ft | 414 kts | 352° |
| 2026-05-05 17:51 | 60.33217 | -5.95061 | 35528 ft | 416 kts | 351° |
| 2026-05-05 17:52 | 60.36081 | -5.95267 | 35002 ft | 418 kts | 351° |
| 2026-05-05 17:52 | 60.38974 | -5.95474 | 34498 ft | 420 kts | 351° |
| 2026-05-05 17:52 | 60.41924 | -5.95689 | 33925 ft | 423 kts | 350° |
| 2026-05-05 17:52 | 60.44835 | -5.95899 | 33356 ft | 425 kts | 349° |
| 2026-05-05 17:53 | 60.47767 | -5.96111 | 32822 ft | 426 kts | 349° |
| 2026-05-05 17:53 | 60.50726 | -5.96326 | 32259 ft | 427 kts | 349° |
| 2026-05-05 17:53 | 60.53657 | -5.96538 | 31676 ft | 428 kts | 348° |
| 2026-05-05 17:53 | 60.56618 | -5.96751 | 31173 ft | 426 kts | 348° |
| 2026-05-05 17:54 | 60.59538 | -5.96958 | 30724 ft | 420 kts | 347° |
| 2026-05-05 17:54 | 60.62409 | -5.97166 | 30314 ft | 413 kts | 347° |
| 2026-05-05 17:54 | 60.65244 | -5.97376 | 29941 ft | 406 kts | 347° |
| 2026-05-05 17:54 | 60.68028 | -5.97580 | 29568 ft | 398 kts | 347° |
| 2026-05-05 17:55 | 60.70755 | -5.97781 | 29211 ft | 391 kts | 347° |
| 2026-05-05 17:55 | 60.73463 | -5.97984 | 28857 ft | 383 kts | 347° |
| 2026-05-05 17:55 | 60.76094 | -5.98177 | 28524 ft | 378 kts | 346° |
| 2026-05-05 17:55 | 60.78680 | -5.98377 | 28188 ft | 377 kts | 346° |
| 2026-05-05 17:56 | 60.81274 | -5.98577 | 27852 ft | 374 kts | 346° |
| 2026-05-05 17:56 | 60.83842 | -5.98773 | 27506 ft | 370 kts | 346° |
| 2026-05-05 17:56 | 60.86443 | -5.98969 | 27177 ft | 367 kts | 346° |
| 2026-05-05 17:56 | 60.88953 | -5.99159 | 26848 ft | 365 kts | 346° |
| 2026-05-05 17:57 | 60.91482 | -5.99347 | 26504 ft | 362 kts | 346° |
| 2026-05-05 17:57 | 60.93995 | -5.99536 | 26160 ft | 359 kts | 346° |
| 2026-05-05 17:57 | 60.96453 | -5.99722 | 25832 ft | 356 kts | 346° |
| 2026-05-05 17:57 | 60.98900 | -6.00127 | 25467 ft | 347 kts | 341° |
| 2026-05-05 17:58 | 61.01250 | -6.00972 | 25095 ft | 339 kts | 336° |
| 2026-05-05 17:58 | 61.03491 | -6.02200 | 24723 ft | 331 kts | 333° |
| 2026-05-05 17:58 | 61.05695 | -6.03576 | 24340 ft | 328 kts | 333° |
| 2026-05-05 17:58 | 61.07846 | -6.04942 | 23969 ft | 326 kts | 333° |
| 2026-05-05 17:59 | 61.09994 | -6.06313 | 23528 ft | 324 kts | 333° |
| 2026-05-05 17:59 | 61.12124 | -6.07672 | 23059 ft | 323 kts | 333° |
| 2026-05-05 17:59 | 61.14265 | -6.09040 | 22610 ft | 321 kts | 334° |
| 2026-05-05 17:59 | 61.16405 | -6.10407 | 22104 ft | 321 kts | 334° |
| 2026-05-05 18:00 | 61.18515 | -6.11760 | 21594 ft | 321 kts | 334° |
| 2026-05-05 18:00 | 61.20648 | -6.13124 | 21080 ft | 321 kts | 334° |
| 2026-05-05 18:00 | 61.22752 | -6.14474 | 20561 ft | 320 kts | 335° |
| 2026-05-05 18:00 | 61.24880 | -6.15841 | 20037 ft | 320 kts | 335° |
| 2026-05-05 18:01 | 61.26973 | -6.17185 | 19549 ft | 319 kts | 335° |
| 2026-05-05 18:01 | 61.29092 | -6.18546 | 19074 ft | 316 kts | 335° |
| 2026-05-05 18:01 | 61.31167 | -6.19886 | 18606 ft | 315 kts | 336° |
| 2026-05-05 18:01 | 61.33255 | -6.21231 | 18092 ft | 314 kts | 336° |
| 2026-05-05 18:02 | 61.35316 | -6.22565 | 17573 ft | 313 kts | 336° |
| 2026-05-05 18:02 | 61.37396 | -6.23911 | 17042 ft | 313 kts | 337° |
| 2026-05-05 18:02 | 61.39461 | -6.25251 | 16512 ft | 313 kts | 337° |
| 2026-05-05 18:02 | 61.41532 | -6.26596 | 15980 ft | 314 kts | 338° |
| 2026-05-05 18:03 | 61.43597 | -6.27943 | 15434 ft | 314 kts | 338° |
| 2026-05-05 18:03 | 61.45698 | -6.29309 | 14882 ft | 314 kts | 339° |
| 2026-05-05 18:03 | 61.47747 | -6.30640 | 14394 ft | 312 kts | 339° |
| 2026-05-05 18:03 | 61.49819 | -6.31988 | 13919 ft | 310 kts | 339° |
| 2026-05-05 18:04 | 61.51838 | -6.33304 | 13473 ft | 307 kts | 339° |
| 2026-05-05 18:04 | 61.53885 | -6.34640 | 13023 ft | 305 kts | 339° |
| 2026-05-05 18:04 | 61.55885 | -6.35946 | 12599 ft | 302 kts | 339° |
| 2026-05-05 18:04 | 61.57869 | -6.37245 | 12185 ft | 298 kts | 339° |
| 2026-05-05 18:05 | 61.59819 | -6.38523 | 11792 ft | 295 kts | 339° |
| 2026-05-05 18:05 | 61.61768 | -6.39804 | 11391 ft | 292 kts | 339° |
| 2026-05-05 18:05 | 61.63690 | -6.41069 | 10999 ft | 289 kts | 339° |
| 2026-05-05 18:05 | 61.65592 | -6.42322 | 10620 ft | 286 kts | 339° |
| 2026-05-05 18:06 | 61.67479 | -6.43569 | 10260 ft | 282 kts | 339° |
| 2026-05-05 18:06 | 61.68079 | -6.43965 | 10208 ft | 279 kts | 339° |
| 2026-05-05 18:06 | 61.71050 | -6.45925 | 9982 ft | 260 kts | 339° |
| 2026-05-05 18:06 | 61.72756 | -6.47057 | 9622 ft | 257 kts | 339° |
| 2026-05-05 18:07 | 61.74435 | -6.48175 | 9281 ft | 255 kts | 339° |
| 2026-05-05 18:07 | 61.76116 | -6.49295 | 8946 ft | 252 kts | 339° |
| 2026-05-05 18:07 | 61.77770 | -6.50398 | 8618 ft | 249 kts | 339° |
| 2026-05-05 18:07 | 61.79420 | -6.51498 | 8288 ft | 247 kts | 339° |
| 2026-05-05 18:08 | 61.81039 | -6.52577 | 7969 ft | 244 kts | 340° |
| 2026-05-05 18:08 | 61.82646 | -6.53650 | 7653 ft | 242 kts | 340° |
| 2026-05-05 18:08 | 61.84235 | -6.54712 | 7341 ft | 239 kts | 340° |
| 2026-05-05 18:08 | 61.85818 | -6.55770 | 7029 ft | 237 kts | 340° |
| 2026-05-05 18:09 | 61.87384 | -6.56850 | 6712 ft | 235 kts | 336° |
| 2026-05-05 18:09 | 61.88715 | -6.58711 | 6407 ft | 230 kts | 314° |
| 2026-05-05 18:09 | 61.89622 | -6.61455 | 6118 ft | 228 kts | 301° |
| 2026-05-05 18:09 | 61.90370 | -6.64360 | 5833 ft | 226 kts | 301° |
| 2026-05-05 18:10 | 61.91116 | -6.67284 | 5540 ft | 225 kts | 300° |
| 2026-05-05 18:10 | 61.91855 | -6.70177 | 5246 ft | 224 kts | 300° |
| 2026-05-05 18:10 | 61.92639 | -6.73018 | 4950 ft | 223 kts | 303° |
| 2026-05-05 18:10 | 61.93453 | -6.75811 | 4653 ft | 222 kts | 302° |
| 2026-05-05 18:11 | 61.94220 | -6.78605 | 4362 ft | 222 kts | 301° |
| 2026-05-05 18:11 | 61.94961 | -6.81454 | 4146 ft | 217 kts | 300° |
| 2026-05-05 18:11 | 61.95647 | -6.84199 | 4128 ft | 202 kts | 299° |
| 2026-05-05 18:11 | 61.96272 | -6.86745 | 4118 ft | 194 kts | 299° |
| 2026-05-05 18:12 | 61.96896 | -6.89303 | 4114 ft | 194 kts | 300° |
| 2026-05-05 18:12 | 61.97516 | -6.91849 | 4136 ft | 194 kts | 300° |
| 2026-05-05 18:12 | 61.98136 | -6.94391 | 4104 ft | 194 kts | 300° |
| 2026-05-05 18:12 | 61.98766 | -6.96971 | 3885 ft | 195 kts | 300° |
| 2026-05-05 18:13 | 61.99385 | -6.99499 | 3557 ft | 189 kts | 300° |
| 2026-05-05 18:13 | 61.99979 | -7.01924 | 3255 ft | 180 kts | 300° |
| 2026-05-05 18:13 | 62.00545 | -7.04224 | 2969 ft | 174 kts | 300° |
| 2026-05-05 18:13 | 62.01104 | -7.06491 | 2706 ft | 173 kts | 300° |
| 2026-05-05 18:14 | 62.01658 | -7.08739 | 2483 ft | 167 kts | 300° |
| 2026-05-05 18:14 | 62.02177 | -7.10843 | 2234 ft | 157 kts | 300° |
| 2026-05-05 18:14 | 62.02669 | -7.12836 | 1980 ft | 146 kts | 299° |
| 2026-05-05 18:14 | 62.03114 | -7.14663 | 1718 ft | 133 kts | 301° |
| 2026-05-05 18:15 | 62.03532 | -7.16342 | 1474 ft | 124 kts | 300° |
| 2026-05-05 18:15 | 62.03934 | -7.17946 | 1310 ft | 124 kts | 299° |
| 2026-05-05 18:15 | 62.04341 | -7.19578 | 1108 ft | 124 kts | 300° |
| 2026-05-05 18:15 | 62.04736 | -7.21181 | 890 ft | 123 kts | 301° |
| 2026-05-05 18:16 | 62.05130 | -7.22778 | 711 ft | 122 kts | 298° |
| 2026-05-05 18:16 | 62.05444 | -7.24034 | 545 ft | 122 kts | 300° |
| 2026-05-05 18:16 | 62.05834 | -7.25620 | 370 ft | 121 kts | 298° |
| 2026-05-05 18:16 | 62.06203 | -7.27096 | 295 ft | 85 kts | 295° |
| 2026-05-05 18:17 | 62.06280 | -7.27413 | 295 ft | 14 kts | 303° |